Terminal Aerodrome Forecast
Issued by NWS

Home | Current Version | Previous Version | Text Only | Print | Product List | Glossary On
Versions: 1 2 3 4 5 6 7 8 9 10 11 12 13 14
803
FTUS42 KGSP 010538
TAFGMU
TAF
KGMU 010538Z 0106/0206 03003KT P6SM SCT150
     FM011800 16004KT P6SM SCT050 PROB30 0119/0201 4SM -TSRA
      BKN050CB
     FM020100 11003KT P6SM BKN250=

USA.gov is the U.S. government's official web portal to all federal, state and local government web resources and services.